Time;durP1;ratioP1;P1;durP2;ratioP2;P2;SDS_P1;SDS_P2;PMS_P1;PMS_P2;Temp;Humidity;BMP_temperature;BMP_pressure;BME280_temperature;BME280_humidity;BME280_pressure;Samples;Min_cycle;Max_cycle;Signal;HPM_P1;HPM_P2
2023/03/10 00:00:46;;;;;;;;;;;2.70;99.90;;;;;;5014561;28;19909;-83
2023/03/10 00:03:12;;;;;;;;;;;2.70;99.90;;;;;;5013616;28;20374;-83
2023/03/10 00:05:37;;;;;;;;;;;2.60;99.90;;;;;;4997657;28;20361;-83
2023/03/10 00:08:03;;;;;;;;;;;2.60;99.90;;;;;;4996064;28;19909;-83
2023/03/10 00:10:29;;;;;;;;;;;2.50;99.90;;;;;;4996074;28;20278;-83
2023/03/10 00:12:55;;;;;;;;;;;2.50;99.90;;;;;;5013719;28;19910;-83
2023/03/10 00:15:20;;;;;;;;;;;2.50;99.90;;;;;;5015500;28;19961;-83
2023/03/10 00:17:48;;;;;;;;;;;2.50;99.90;;;;;;5017482;28;19914;-83
2023/03/10 00:20:15;;;;;;;;;;;2.50;99.90;;;;;;5017344;28;20286;-83
2023/03/10 00:22:40;;;;;;;;;;;2.50;99.90;;;;;;4999551;28;19927;-82
2023/03/10 00:25:07;;;;;;;;;;;2.50;99.90;;;;;;4999630;28;20016;-82
2023/03/10 00:27:33;;;;;;;;;;;2.50;99.90;;;;;;5017189;28;20358;-82
2023/03/10 00:29:58;;;;;;;;;;;2.50;99.90;;;;;;5017431;28;20013;-82
2023/03/10 00:32:25;;;;;;;;;;;2.50;99.90;;;;;;4999739;28;19909;-82
2023/03/10 00:34:50;;;;;;;;;;;2.40;99.90;;;;;;5017217;28;20397;-82
2023/03/10 00:37:17;;;;;;;;;;;2.40;99.90;;;;;;5017123;28;19960;-82
2023/03/10 00:39:43;;;;;;;;;;;2.40;99.90;;;;;;5017206;28;19955;-82
2023/03/10 00:42:09;;;;;;;;;;;2.30;99.90;;;;;;4999554;28;19910;-82
2023/03/10 00:44:34;;;;;;;;;;;2.30;99.90;;;;;;4999589;28;20376;-82
2023/03/10 00:47:00;;;;;;;;;;;2.20;99.90;;;;;;4999341;28;20266;-82
2023/03/10 00:49:26;;;;;;;;;;;2.20;99.90;;;;;;5016895;28;19916;-82
2023/03/10 00:51:51;;;;;;;;;;;2.10;99.90;;;;;;5017131;28;19913;-82
2023/03/10 00:54:17;;;;;;;;;;;2.00;99.90;;;;;;4999683;28;19921;-82
2023/03/10 00:56:42;;;;;;;;;;;1.90;99.90;;;;;;4999561;28;19921;-82
2023/03/10 00:59:09;;;;;;;;;;;1.80;99.90;;;;;;5015639;28;19925;-83
2023/03/10 01:01:36;;;;;;;;;;;1.70;99.90;;;;;;5016765;28;19909;-82
2023/03/10 01:04:04;;;;;;;;;;;1.70;99.90;;;;;;4999141;28;19910;-82
2023/03/10 01:06:30;;;;;;;;;;;1.70;99.90;;;;;;4999019;28;20280;-82
2023/03/10 01:08:56;;;;;;;;;;;1.80;99.90;;;;;;4999077;28;20004;-82
2023/03/10 01:11:22;;;;;;;;;;;1.80;99.90;;;;;;4999143;28;19920;-82
2023/03/10 01:13:48;;;;;;;;;;;1.80;99.90;;;;;;4999057;28;20328;-82
2023/03/10 01:16:14;;;;;;;;;;;1.80;99.90;;;;;;5016553;28;19909;-83
2023/03/10 01:18:39;;;;;;;;;;;1.70;99.90;;;;;;4998090;28;19909;-82
2023/03/10 01:21:06;;;;;;;;;;;1.70;99.90;;;;;;5016520;28;20358;-82
2023/03/10 01:23:31;;;;;;;;;;;1.70;99.90;;;;;;5016420;28;19918;-82
2023/03/10 01:25:57;;;;;;;;;;;1.70;99.90;;;;;;5016277;28;19921;-82
2023/03/10 01:28:23;;;;;;;;;;;1.70;99.90;;;;;;5015086;28;20366;-82
2023/03/10 01:30:49;;;;;;;;;;;1.70;99.90;;;;;;4998750;28;19909;-83
2023/03/10 01:33:15;;;;;;;;;;;1.70;99.90;;;;;;4998857;28;20396;-82
2023/03/10 01:35:40;;;;;;;;;;;1.70;99.90;;;;;;5016726;28;19910;-82
2023/03/10 01:38:07;;;;;;;;;;;1.60;99.90;;;;;;4998697;28;19916;-82
2023/03/10 01:40:33;;;;;;;;;;;1.50;99.90;;;;;;4998995;28;19948;-82
2023/03/10 01:43:17;;;;;;;;;;;1.40;99.90;;;;;;5016223;28;19960;-82
2023/03/10 01:45:46;;;;;;;;;;;1.40;99.90;;;;;;4998804;28;19920;-82
2023/03/10 01:48:12;;;;;;;;;;;1.30;99.90;;;;;;4998809;28;19909;-82
2023/03/10 01:50:38;;;;;;;;;;;1.30;99.90;;;;;;4998471;28;19913;-82
2023/03/10 01:53:04;;;;;;;;;;;1.30;99.90;;;;;;4998564;28;19909;-82
2023/03/10 01:55:32;;;;;;;;;;;1.30;99.90;;;;;;5015755;28;19964;-82
2023/03/10 01:57:57;;;;;;;;;;;1.30;99.90;;;;;;4998437;28;20424;-82
2023/03/10 02:00:24;;;;;;;;;;;1.30;99.90;;;;;;4998489;28;19913;-82
2023/03/10 02:03:02;;;;;;;;;;;1.30;99.90;;;;;;4999212;28;19909;-82
2023/03/10 02:05:29;;;;;;;;;;;1.30;99.90;;;;;;4998855;28;19975;-82
2023/03/10 02:07:55;;;;;;;;;;;1.30;99.90;;;;;;5015902;28;19917;-82
2023/03/10 02:10:21;;;;;;;;;;;1.20;99.90;;;;;;5014708;28;19968;-82
2023/03/10 02:12:46;;;;;;;;;;;1.20;99.90;;;;;;4998343;28;19917;-82
2023/03/10 02:15:12;;;;;;;;;;;1.20;99.90;;;;;;5014871;28;19943;-82
2023/03/10 02:17:38;;;;;;;;;;;1.20;99.90;;;;;;4997435;28;20385;-82
2023/03/10 02:20:22;;;;;;;;;;;1.10;99.90;;;;;;5014804;28;20037;-82
2023/03/10 02:22:48;;;;;;;;;;;1.00;99.90;;;;;;5015308;28;20318;-82
2023/03/10 02:25:33;;;;;;;;;;;0.90;99.90;;;;;;4997959;28;20380;-82
2023/03/10 02:27:58;;;;;;;;;;;0.90;99.90;;;;;;5015782;28;19913;-82
2023/03/10 02:30:30;;;;;;;;;;;0.80;99.90;;;;;;4997889;28;20004;-82
2023/03/10 02:33:04;;;;;;;;;;;0.80;99.90;;;;;;4997911;28;19909;-82
2023/03/10 02:35:30;;;;;;;;;;;0.90;99.90;;;;;;5015467;28;19910;-82
2023/03/10 02:37:56;;;;;;;;;;;0.90;99.90;;;;;;5014745;28;20362;-82
2023/03/10 02:40:39;;;;;;;;;;;0.80;99.90;;;;;;5015915;28;19917;-82
2023/03/10 02:43:25;;;;;;;;;;;0.80;99.90;;;;;;5015766;28;20325;-82
2023/03/10 02:45:52;;;;;;;;;;;0.80;99.90;;;;;;5014920;28;19937;-82
2023/03/10 02:48:21;;;;;;;;;;;0.90;99.90;;;;;;4997773;28;19919;-82
2023/03/10 02:50:47;;;;;;;;;;;0.90;99.90;;;;;;4997879;28;19931;-82
2023/03/10 02:53:15;;;;;;;;;;;0.90;99.90;;;;;;4997627;28;20420;-82
2023/03/10 02:55:41;;;;;;;;;;;1.00;99.90;;;;;;4997438;28;19945;-82
2023/03/10 02:58:07;;;;;;;;;;;1.00;99.90;;;;;;4997494;28;20282;-82
2023/03/10 03:00:35;;;;;;;;;;;1.00;99.90;;;;;;4997648;28;20290;-82
2023/03/10 03:03:01;;;;;;;;;;;1.00;99.90;;;;;;5015276;28;19913;-82
2023/03/10 03:05:26;;;;;;;;;;;1.00;99.90;;;;;;4997665;28;20012;-82
2023/03/10 03:07:52;;;;;;;;;;;1.00;99.90;;;;;;5015021;28;19913;-82
2023/03/10 03:10:17;;;;;;;;;;;0.90;99.90;;;;;;4996971;28;19917;-83
2023/03/10 03:12:43;;;;;;;;;;;0.80;99.90;;;;;;4997665;28;19913;-82
2023/03/10 03:15:09;;;;;;;;;;;0.80;99.90;;;;;;4997376;28;19945;-82
2023/03/10 03:17:34;;;;;;;;;;;0.70;99.90;;;;;;5013732;28;20366;-82
2023/03/10 03:20:00;;;;;;;;;;;0.70;99.90;;;;;;5013834;28;20290;-82
2023/03/10 03:22:25;;;;;;;;;;;0.70;99.90;;;;;;4997220;28;19929;-82
2023/03/10 03:24:51;;;;;;;;;;;0.70;99.90;;;;;;5015106;28;19920;-82
2023/03/10 03:27:16;;;;;;;;;;;0.60;99.90;;;;;;5013445;28;20286;-82
2023/03/10 03:29:42;;;;;;;;;;;0.60;99.90;;;;;;5014958;28;19920;-82
2023/03/10 03:32:08;;;;;;;;;;;0.60;99.90;;;;;;5015263;28;19925;-82
2023/03/10 03:34:33;;;;;;;;;;;0.60;99.90;;;;;;4997095;28;19964;-82
2023/03/10 03:36:59;;;;;;;;;;;0.70;99.90;;;;;;5015086;28;19913;-82
2023/03/10 03:39:24;;;;;;;;;;;0.70;99.90;;;;;;5013331;28;19910;-82
2023/03/10 03:41:52;;;;;;;;;;;0.70;99.90;;;;;;4997029;28;19917;-82
2023/03/10 03:44:18;;;;;;;;;;;0.60;99.90;;;;;;5013973;28;20008;-82
2023/03/10 03:46:43;;;;;;;;;;;0.60;99.90;;;;;;4997018;28;20003;-82
2023/03/10 03:49:09;;;;;;;;;;;0.50;99.90;;;;;;5015200;28;19935;-82
2023/03/10 03:51:35;;;;;;;;;;;0.50;99.90;;;;;;5001110;28;19920;-82
2023/03/10 03:54:01;;;;;;;;;;;0.50;99.90;;;;;;5001282;28;19910;-82
2023/03/10 03:56:26;;;;;;;;;;;0.50;99.90;;;;;;5017621;28;19996;-82
2023/03/10 03:58:52;;;;;;;;;;;0.50;99.90;;;;;;5001047;28;19914;-82
2023/03/10 04:01:18;;;;;;;;;;;0.50;99.90;;;;;;5001182;28;20374;-82
2023/03/10 04:03:43;;;;;;;;;;;0.50;99.90;;;;;;5018041;28;19964;-82
2023/03/10 04:06:09;;;;;;;;;;;0.40;99.90;;;;;;5000805;28;20016;-82
2023/03/10 04:08:35;;;;;;;;;;;0.40;99.90;;;;;;5001441;28;19960;-82
2023/03/10 04:11:00;;;;;;;;;;;0.40;99.90;;;;;;5001769;28;19921;-82
2023/03/10 04:13:26;;;;;;;;;;;0.40;99.90;;;;;;5001736;28;20377;-82
2023/03/10 04:15:55;;;;;;;;;;;0.40;99.90;;;;;;5000921;28;20012;-82
2023/03/10 04:18:21;;;;;;;;;;;0.40;99.90;;;;;;5000728;28;20008;-82
2023/03/10 04:20:46;;;;;;;;;;;0.50;99.90;;;;;;5000864;28;19941;-82
2023/03/10 04:23:12;;;;;;;;;;;0.50;99.90;;;;;;5018256;28;19928;-82
2023/03/10 04:25:39;;;;;;;;;;;0.50;99.90;;;;;;5017961;28;20391;-82
2023/03/10 04:28:04;;;;;;;;;;;0.50;99.90;;;;;;5000511;28;19957;-82
2023/03/10 04:30:30;;;;;;;;;;;0.60;99.90;;;;;;5018217;28;19910;-82
2023/03/10 04:32:57;;;;;;;;;;;0.60;99.90;;;;;;5000556;28;19909;-82
2023/03/10 04:35:22;;;;;;;;;;;0.60;99.90;;;;;;5019639;28;19959;-82
2023/03/10 04:37:48;;;;;;;;;;;0.60;99.90;;;;;;5017226;28;19918;-82
2023/03/10 04:40:13;;;;;;;;;;;0.60;99.90;;;;;;5017749;28;19916;-82
2023/03/10 04:42:39;;;;;;;;;;;0.50;99.90;;;;;;5017999;28;19909;-82
2023/03/10 04:45:05;;;;;;;;;;;0.50;99.90;;;;;;5000599;28;19920;-82
2023/03/10 04:47:31;;;;;;;;;;;0.40;99.90;;;;;;4999846;28;19918;-82
2023/03/10 04:49:57;;;;;;;;;;;0.40;99.90;;;;;;4999863;28;19921;-82
2023/03/10 04:52:22;;;;;;;;;;;0.40;99.90;;;;;;4999945;28;20334;-82
2023/03/10 04:54:48;;;;;;;;;;;0.40;99.90;;;;;;5016913;28;19924;-82
2023/03/10 04:57:15;;;;;;;;;;;0.40;99.90;;;;;;5017635;28;20420;-82
2023/03/10 04:59:40;;;;;;;;;;;0.30;99.90;;;;;;4999752;28;19924;-82
2023/03/10 05:02:06;;;;;;;;;;;0.30;99.90;;;;;;5016889;28;19910;-83
2023/03/10 05:04:32;;;;;;;;;;;0.30;99.90;;;;;;5000226;28;19910;-82
2023/03/10 05:06:57;;;;;;;;;;;0.30;99.90;;;;;;5017525;28;20003;-82
2023/03/10 05:09:23;;;;;;;;;;;0.30;99.90;;;;;;5017630;28;19910;-82
2023/03/10 05:11:49;;;;;;;;;;;0.30;99.90;;;;;;4999838;28;19909;-82
2023/03/10 05:14:15;;;;;;;;;;;0.40;99.90;;;;;;5000136;28;19915;-82
2023/03/10 05:16:40;;;;;;;;;;;0.40;99.90;;;;;;4999791;28;19910;-82
2023/03/10 05:19:06;;;;;;;;;;;0.30;99.90;;;;;;5000112;28;19920;-82
2023/03/10 05:21:31;;;;;;;;;;;0.30;99.90;;;;;;5017922;28;19909;-82
2023/03/10 05:23:57;;;;;;;;;;;0.30;99.90;;;;;;5017561;28;19920;-82
2023/03/10 05:26:23;;;;;;;;;;;0.30;99.90;;;;;;5015954;28;19973;-83
2023/03/10 05:28:48;;;;;;;;;;;0.30;99.90;;;;;;4999626;28;19917;-83
2023/03/10 05:31:15;;;;;;;;;;;0.30;99.90;;;;;;4999519;28;20011;-82
2023/03/10 05:33:41;;;;;;;;;;;0.40;99.90;;;;;;5017840;28;19910;-82
2023/03/10 05:36:07;;;;;;;;;;;0.40;99.90;;;;;;5016433;28;20366;-83
2023/03/10 05:38:33;;;;;;;;;;;0.40;99.90;;;;;;5017527;28;19909;-83
2023/03/10 05:40:59;;;;;;;;;;;0.50;99.90;;;;;;5016535;28;20281;-79
2023/03/10 05:43:24;;;;;;;;;;;0.50;99.90;;;;;;5016169;28;19921;-79
2023/03/10 05:45:54;;;;;;;;;;;0.50;99.90;;;;;;5015058;28;19917;-79
2023/03/10 05:48:19;;;;;;;;;;;0.40;99.90;;;;;;5014264;28;19921;-79
2023/03/10 05:50:45;;;;;;;;;;;0.50;99.90;;;;;;4998184;28;19914;-79
2023/03/10 05:53:11;;;;;;;;;;;0.50;99.90;;;;;;5015599;28;19949;-79
2023/03/10 05:55:36;;;;;;;;;;;0.60;99.90;;;;;;5014865;28;19913;-79
2023/03/10 05:58:02;;;;;;;;;;;0.60;99.90;;;;;;5016303;28;19913;-79
2023/03/10 06:00:27;;;;;;;;;;;0.60;99.90;;;;;;4998639;28;19923;-79
2023/03/10 06:02:53;;;;;;;;;;;0.70;99.90;;;;;;5015148;28;20020;-79
2023/03/10 06:05:18;;;;;;;;;;;0.70;99.90;;;;;;5015678;28;20329;-78
2023/03/10 06:07:44;;;;;;;;;;;0.70;99.90;;;;;;4998630;28;20000;-79
2023/03/10 06:10:10;;;;;;;;;;;0.70;99.90;;;;;;5014983;28;19914;-78
2023/03/10 06:12:35;;;;;;;;;;;0.70;99.90;;;;;;5015800;28;19956;-78
2023/03/10 06:15:01;;;;;;;;;;;0.70;99.90;;;;;;4998543;28;19925;-78
2023/03/10 06:17:27;;;;;;;;;;;0.70;99.90;;;;;;4998588;28;20289;-79
2023/03/10 06:19:52;;;;;;;;;;;0.80;99.90;;;;;;5014810;28;19964;-79
2023/03/10 06:22:18;;;;;;;;;;;0.80;99.90;;;;;;4998343;28;20011;-79
2023/03/10 06:24:44;;;;;;;;;;;0.90;99.90;;;;;;5016452;28;19910;-79
2023/03/10 06:27:10;;;;;;;;;;;0.90;99.90;;;;;;5014589;28;20292;-79
2023/03/10 06:29:35;;;;;;;;;;;0.90;99.90;;;;;;5016063;28;19920;-79
2023/03/10 06:32:01;;;;;;;;;;;0.90;99.90;;;;;;5015769;28;20354;-79
2023/03/10 06:34:26;;;;;;;;;;;1.00;99.90;;;;;;5016299;28;19967;-79
2023/03/10 06:36:53;;;;;;;;;;;1.00;99.90;;;;;;5015607;28;19913;-79
2023/03/10 06:39:19;;;;;;;;;;;1.00;99.90;;;;;;5016528;28;19952;-79
2023/03/10 06:41:44;;;;;;;;;;;1.10;99.90;;;;;;5015750;28;19913;-79
2023/03/10 06:44:17;;;;;;;;;;;1.10;99.90;;;;;;5015496;28;19914;-79
2023/03/10 06:46:46;;;;;;;;;;;1.20;99.90;;;;;;4997774;28;19923;-79
2023/03/10 06:49:12;;;;;;;;;;;1.20;99.90;;;;;;4998305;28;19959;-79
2023/03/10 06:51:37;;;;;;;;;;;1.30;99.90;;;;;;5015856;28;19921;-79
2023/03/10 06:54:04;;;;;;;;;;;1.30;99.90;;;;;;4997935;28;19964;-79
2023/03/10 06:56:29;;;;;;;;;;;1.30;99.90;;;;;;5015593;28;19968;-79
2023/03/10 06:58:55;;;;;;;;;;;1.30;99.90;;;;;;4998142;28;19910;-79
2023/03/10 07:01:28;;;;;;;;;;;1.40;99.90;;;;;;5014359;28;19914;-79
2023/03/10 07:03:54;;;;;;;;;;;1.40;99.90;;;;;;4998128;28;19909;-79
2023/03/10 07:06:20;;;;;;;;;;;1.50;99.90;;;;;;4997879;28;19913;-79
2023/03/10 07:08:45;;;;;;;;;;;1.50;99.90;;;;;;5015718;28;19910;-78
2023/03/10 07:11:11;;;;;;;;;;;1.50;99.90;;;;;;4997738;28;20117;-78
2023/03/10 07:13:37;;;;;;;;;;;1.60;99.90;;;;;;5015210;28;19917;-79
2023/03/10 07:16:03;;;;;;;;;;;1.60;99.90;;;;;;4997680;28;19960;-79
2023/03/10 07:18:28;;;;;;;;;;;1.60;99.90;;;;;;5015150;28;19913;-79
2023/03/10 07:20:54;;;;;;;;;;;1.70;99.90;;;;;;4997766;28;19914;-79
2023/03/10 07:23:20;;;;;;;;;;;1.70;99.90;;;;;;4997629;28;19917;-79
2023/03/10 07:25:50;;;;;;;;;;;1.70;99.90;;;;;;4997132;28;19996;-79
2023/03/10 07:28:15;;;;;;;;;;;1.80;99.90;;;;;;4998776;28;19910;-79
2023/03/10 07:30:41;;;;;;;;;;;1.80;99.90;;;;;;5038053;23;19913;-77
2023/03/10 07:33:06;;;;;;;;;;;1.80;99.90;;;;;;5032070;28;20364;-76
2023/03/10 07:35:32;;;;;;;;;;;1.90;99.90;;;;;;5015985;28;19971;-77
2023/03/10 07:37:58;;;;;;;;;;;1.90;99.90;;;;;;5033995;28;19913;-77
2023/03/10 07:40:23;;;;;;;;;;;1.90;99.90;;;;;;5016930;28;19909;-77
2023/03/10 07:42:53;;;;;;;;;;;2.00;99.90;;;;;;5033581;28;19921;-77
2023/03/10 07:45:19;;;;;;;;;;;2.00;99.90;;;;;;5033647;28;19909;-77
2023/03/10 07:47:45;;;;;;;;;;;2.00;99.90;;;;;;5033269;28;19917;-76
2023/03/10 07:50:11;;;;;;;;;;;2.00;99.90;;;;;;5033848;28;19932;-77
2023/03/10 07:52:36;;;;;;;;;;;2.10;99.90;;;;;;5033569;28;19909;-77
2023/03/10 07:55:02;;;;;;;;;;;2.10;99.90;;;;;;5033560;28;19910;-77
2023/03/10 07:57:28;;;;;;;;;;;2.10;99.90;;;;;;5033504;28;19909;-76
2023/03/10 07:59:54;;;;;;;;;;;2.10;99.90;;;;;;5033476;28;19920;-76
2023/03/10 08:02:19;;;;;;;;;;;2.20;99.90;;;;;;5033066;28;20288;-76
2023/03/10 08:04:45;;;;;;;;;;;2.20;99.90;;;;;;5033666;28;20396;-77
2023/03/10 08:07:10;;;;;;;;;;;2.20;99.90;;;;;;5033927;28;19967;-76
2023/03/10 08:09:36;;;;;;;;;;;2.30;99.90;;;;;;5033694;28;19921;-77
2023/03/10 08:12:02;;;;;;;;;;;2.30;99.90;;;;;;5033321;28;19916;-77
2023/03/10 08:14:28;;;;;;;;;;;2.40;99.90;;;;;;5033360;28;19914;-77
2023/03/10 08:16:57;;;;;;;;;;;2.40;99.90;;;;;;5033078;28;19955;-77
2023/03/10 08:19:23;;;;;;;;;;;2.50;99.90;;;;;;5033336;28;19909;-76
2023/03/10 08:21:49;;;;;;;;;;;2.50;99.90;;;;;;5015544;28;19932;-77
2023/03/10 08:24:15;;;;;;;;;;;2.60;99.90;;;;;;5015655;28;20358;-77
2023/03/10 08:26:40;;;;;;;;;;;2.60;99.90;;;;;;5033133;28;20278;-77
2023/03/10 08:29:06;;;;;;;;;;;2.70;99.90;;;;;;5033720;28;19913;-77
2023/03/10 08:31:31;;;;;;;;;;;2.80;99.90;;;;;;5032670;28;19967;-76
2023/03/10 08:33:57;;;;;;;;;;;2.80;99.90;;;;;;5033155;28;19917;-77
2023/03/10 08:36:27;;;;;;;;;;;2.80;99.90;;;;;;5034958;28;19913;-77
2023/03/10 08:38:53;;;;;;;;;;;2.90;99.90;;;;;;5018964;28;20452;-77
2023/03/10 08:41:27;;;;;;;;;;;3.00;99.90;;;;;;5036595;28;19916;-77
2023/03/10 08:43:54;;;;;;;;;;;3.00;99.90;;;;;;5036952;28;19910;-77
2023/03/10 08:46:21;;;;;;;;;;;3.10;99.90;;;;;;5036275;28;20399;-77
2023/03/10 08:48:47;;;;;;;;;;;3.10;99.90;;;;;;5036525;28;20004;-77
2023/03/10 08:51:13;;;;;;;;;;;3.20;99.90;;;;;;5036770;28;19952;-77
2023/03/10 08:53:39;;;;;;;;;;;3.20;99.90;;;;;;5019082;28;20014;-77
2023/03/10 08:56:05;;;;;;;;;;;3.30;99.90;;;;;;5035285;28;19963;-77
2023/03/10 08:58:30;;;;;;;;;;;3.30;99.90;;;;;;5036386;28;19963;-77
2023/03/10 09:00:56;;;;;;;;;;;3.40;99.90;;;;;;5036222;28;19909;-77
2023/03/10 09:03:22;;;;;;;;;;;3.50;99.90;;;;;;5036059;28;19916;-77
2023/03/10 09:05:48;;;;;;;;;;;3.50;99.90;;;;;;5036495;28;20361;-77
2023/03/10 09:08:13;;;;;;;;;;;3.60;99.90;;;;;;5036498;28;19966;-77
2023/03/10 09:10:40;;;;;;;;;;;3.60;99.90;;;;;;5036125;28;20381;-77
2023/03/10 09:13:05;;;;;;;;;;;3.70;99.90;;;;;;5036044;28;19959;-77
2023/03/10 09:15:33;;;;;;;;;;;3.70;99.90;;;;;;5018264;28;20390;-77
2023/03/10 09:18:00;;;;;;;;;;;3.80;99.90;;;;;;5035815;28;19919;-77
2023/03/10 09:20:25;;;;;;;;;;;3.90;99.90;;;;;;5036290;28;19913;-77
2023/03/10 09:22:52;;;;;;;;;;;3.90;99.90;;;;;;5035947;28;20373;-77
2023/03/10 09:25:18;;;;;;;;;;;3.90;99.90;;;;;;5035891;28;19917;-77
2023/03/10 09:27:43;;;;;;;;;;;4.00;99.90;;;;;;5018013;28;19913;-77
2023/03/10 09:30:09;;;;;;;;;;;4.00;99.90;;;;;;5036388;28;19920;-77
2023/03/10 09:32:34;;;;;;;;;;;4.10;99.90;;;;;;5035391;28;19928;-77
2023/03/10 09:35:00;;;;;;;;;;;4.20;99.90;;;;;;5035706;28;19913;-77
2023/03/10 09:37:26;;;;;;;;;;;4.30;99.90;;;;;;5035652;28;19913;-77
2023/03/10 09:39:52;;;;;;;;;;;4.40;99.90;;;;;;5018144;28;19918;-77
2023/03/10 09:42:24;;;;;;;;;;;4.50;99.90;;;;;;5035815;28;19921;-77
2023/03/10 09:44:52;;;;;;;;;;;4.50;99.90;;;;;;5035851;28;19909;-77
2023/03/10 09:47:22;;;;;;;;;;;4.70;99.90;;;;;;5017293;28;19913;-77
2023/03/10 09:49:51;;;;;;;;;;;4.70;99.90;;;;;;5035439;28;19909;-77
2023/03/10 09:52:16;;;;;;;;;;;4.80;99.90;;;;;;5035299;28;19913;-77
2023/03/10 09:55:04;;;;;;;;;;;4.90;99.90;;;;;;5035334;28;20336;-77
2023/03/10 09:57:30;;;;;;;;;;;5.00;99.90;;;;;;5035888;28;20404;-77
2023/03/10 09:59:58;;;;;;;;;;;5.10;99.90;;;;;;5035255;28;20298;-77
2023/03/10 10:02:33;;;;;;;;;;;5.20;99.90;;;;;;5034903;28;19916;-77
2023/03/10 10:05:02;;;;;;;;;;;5.40;99.90;;;;;;5035093;28;20008;-77
2023/03/10 10:07:35;;;;;;;;;;;5.50;99.90;;;;;;5035214;28;19913;-77
2023/03/10 10:10:01;;;;;;;;;;;5.70;99.90;;;;;;5035244;28;20363;-77
2023/03/10 10:12:26;;;;;;;;;;;5.80;99.90;;;;;;5034893;28;19920;-77
2023/03/10 10:14:56;;;;;;;;;;;6.00;99.90;;;;;;5035037;28;19920;-77
2023/03/10 10:17:22;;;;;;;;;;;6.20;99.90;;;;;;5034811;28;19909;-77
2023/03/10 10:19:48;;;;;;;;;;;6.40;99.90;;;;;;5034867;28;19975;-77
2023/03/10 10:22:23;;;;;;;;;;;6.70;99.90;;;;;;5034733;28;19914;-77
2023/03/10 10:24:57;;;;;;;;;;;6.90;99.90;;;;;;5034726;28;20047;-77
2023/03/10 10:27:23;;;;;;;;;;;7.30;99.90;;;;;;5034645;28;19913;-77
2023/03/10 10:29:48;;;;;;;;;;;7.50;99.90;;;;;;5034956;28;19921;-77
2023/03/10 10:32:14;;;;;;;;;;;7.80;99.90;;;;;;5034111;28;19927;-77
2023/03/10 10:34:44;;;;;;;;;;;8.10;99.90;;;;;;5016849;28;20008;-77
2023/03/10 10:37:20;;;;;;;;;;;8.30;99.90;;;;;;5034530;28;20030;-77
2023/03/10 10:39:47;;;;;;;;;;;8.40;99.90;;;;;;5034484;28;20404;-77
2023/03/10 10:42:23;;;;;;;;;;;8.50;99.90;;;;;;5034485;28;19913;-77
2023/03/10 10:44:50;;;;;;;;;;;8.60;99.90;;;;;;5034611;28;19909;-77
2023/03/10 10:47:25;;;;;;;;;;;8.70;99.90;;;;;;5034234;28;19971;-77
2023/03/10 10:49:51;;;;;;;;;;;8.90;99.90;;;;;;5034330;28;19956;-77
2023/03/10 10:52:18;;;;;;;;;;;9.10;99.90;;;;;;5034205;28;19920;-77
2023/03/10 10:54:52;;;;;;;;;;;9.20;99.90;;;;;;5016549;28;19909;-77
2023/03/10 10:57:23;;;;;;;;;;;9.40;99.90;;;;;;5035035;28;19932;-77
2023/03/10 10:59:48;;;;;;;;;;;9.50;99.90;;;;;;5033958;28;19916;-77
2023/03/10 11:02:20;;;;;;;;;;;9.70;99.90;;;;;;5033857;28;19914;-77
2023/03/10 11:04:46;;;;;;;;;;;9.90;99.90;;;;;;5034069;28;19952;-77
2023/03/10 11:07:25;;;;;;;;;;;10.10;99.90;;;;;;5034242;28;19956;-77
2023/03/10 11:09:52;;;;;;;;;;;10.20;99.90;;;;;;5034033;28;19910;-77
2023/03/10 11:12:26;;;;;;;;;;;10.40;99.90;;;;;;5032793;28;19924;-77
2023/03/10 11:15:30;;;;;;;;;;;10.50;99.90;;;;;;5034531;28;20266;-78
2023/03/10 11:18:16;;;;;;;;;;;10.60;99.90;;;;;;4972795;28;19910;-77
2023/03/10 11:20:47;;;;;;;;;;;10.80;99.90;;;;;;4972820;28;20439;-78
2023/03/10 11:23:19;;;;;;;;;;;11.00;99.90;;;;;;5012147;28;20362;-77
2023/03/10 11:25:58;;;;;;;;;;;11.30;99.90;;;;;;5033695;28;19913;-77
2023/03/10 11:28:38;;;;;;;;;;;11.50;99.90;;;;;;5033760;28;20303;-77
2023/03/10 11:31:04;;;;;;;;;;;11.50;99.90;;;;;;5015857;28;19917;-77
2023/03/10 11:33:38;;;;;;;;;;;11.50;99.90;;;;;;5033495;28;19912;-77
2023/03/10 11:36:33;;;;;;;;;;;11.50;99.90;;;;;;5033682;28;19909;-77
2023/03/10 11:39:10;;;;;;;;;;;11.60;99.10;;;;;;5020683;28;19909;-77
2023/03/10 11:41:38;;;;;;;;;;;11.70;98.10;;;;;;5033834;28;19909;-76
2023/03/10 11:44:13;;;;;;;;;;;11.70;98.40;;;;;;5033978;28;19910;-77
2023/03/10 11:46:39;;;;;;;;;;;11.70;97.30;;;;;;5033849;28;20361;-76
2023/03/10 11:49:06;;;;;;;;;;;11.70;96.50;;;;;;5032669;28;19909;-76
2023/03/10 11:51:44;;;;;;;;;;;11.80;95.00;;;;;;5033463;28;19917;-77
2023/03/10 11:54:19;;;;;;;;;;;11.80;94.90;;;;;;5033591;28;19952;-77
2023/03/10 11:56:45;;;;;;;;;;;11.90;93.70;;;;;;5033399;28;19909;-77
2023/03/10 11:59:11;;;;;;;;;;;12.00;93.40;;;;;;5015760;28;20290;-77
2023/03/10 12:01:47;;;;;;;;;;;12.00;92.50;;;;;;5033452;28;19920;-77
2023/03/10 12:04:21;;;;;;;;;;;12.00;92.20;;;;;;5033229;28;19955;-77
2023/03/10 12:07:00;;;;;;;;;;;11.90;92.30;;;;;;5034425;28;20293;-77
2023/03/10 12:09:47;;;;;;;;;;;11.70;93.30;;;;;;5033404;28;19909;-77
2023/03/10 12:12:21;;;;;;;;;;;11.60;94.20;;;;;;5036517;28;19908;-77
2023/03/10 12:14:47;;;;;;;;;;;11.40;94.60;;;;;;5037688;28;19910;-78
2023/03/10 12:17:14;;;;;;;;;;;11.30;94.80;;;;;;5036643;28;19959;-77
2023/03/10 12:19:58;;;;;;;;;;;11.20;95.40;;;;;;5036850;28;19959;-77
2023/03/10 12:22:34;;;;;;;;;;;11.00;97.40;;;;;;5037044;28;19955;-77
2023/03/10 12:24:59;;;;;;;;;;;10.90;99.60;;;;;;5037364;28;19913;-77
2023/03/10 12:27:25;;;;;;;;;;;10.80;99.90;;;;;;5036914;28;20441;-77
2023/03/10 12:29:51;;;;;;;;;;;10.70;99.90;;;;;;5036910;28;20012;-77
2023/03/10 12:32:35;;;;;;;;;;;10.60;99.90;;;;;;5035559;28;19928;-77
2023/03/10 12:35:19;;;;;;;;;;;10.60;99.90;;;;;;5036584;28;20009;-77
2023/03/10 12:37:44;;;;;;;;;;;10.60;99.90;;;;;;5037005;28;19916;-77
2023/03/10 12:40:30;;;;;;;;;;;10.70;99.90;;;;;;5036761;28;19909;-77
2023/03/10 12:42:56;;;;;;;;;;;10.70;99.90;;;;;;5026087;28;19909;-77
2023/03/10 12:45:28;;;;;;;;;;;10.80;99.90;;;;;;5036969;28;20008;-77
2023/03/10 12:48:03;;;;;;;;;;;10.90;99.90;;;;;;5036518;28;19913;-78
2023/03/10 12:50:47;;;;;;;;;;;10.90;99.90;;;;;;5036363;28;20007;-77
2023/03/10 12:53:25;;;;;;;;;;;10.80;99.90;;;;;;5036446;28;19959;-77
2023/03/10 12:56:09;;;;;;;;;;;10.80;99.90;;;;;;5018740;28;19916;-78
2023/03/10 12:58:35;;;;;;;;;;;10.80;99.90;;;;;;5036093;28;19971;-77
2023/03/10 13:01:02;;;;;;;;;;;10.80;99.90;;;;;;5036323;28;19913;-77
2023/03/10 13:03:37;;;;;;;;;;;10.80;99.90;;;;;;5036661;28;19909;-77
2023/03/10 13:06:07;;;;;;;;;;;10.70;99.90;;;;;;5036013;28;19917;-77
2023/03/10 13:08:51;;;;;;;;;;;10.60;99.90;;;;;;5036621;28;20397;-77
2023/03/10 13:11:17;;;;;;;;;;;10.60;99.90;;;;;;5036358;28;19948;-77
2023/03/10 13:13:45;;;;;;;;;;;10.60;99.90;;;;;;5036203;28;19909;-77
2023/03/10 13:16:15;;;;;;;;;;;10.50;99.90;;;;;;5035975;28;19952;-77
2023/03/10 13:18:45;;;;;;;;;;;10.50;99.90;;;;;;5036245;28;19992;-77
2023/03/10 13:21:30;;;;;;;;;;;10.50;99.90;;;;;;5035227;28;19909;-76
2023/03/10 13:23:57;;;;;;;;;;;10.50;99.90;;;;;;5035371;28;19905;-76
2023/03/10 13:26:23;;;;;;;;;;;10.60;99.90;;;;;;5035932;28;20373;-77
2023/03/10 13:28:49;;;;;;;;;;;10.60;99.90;;;;;;5035658;28;20026;-77
2023/03/10 13:31:18;;;;;;;;;;;10.70;99.90;;;;;;5035745;28;20365;-78
2023/03/10 13:33:44;;;;;;;;;;;10.80;99.90;;;;;;5035836;28;19999;-77
2023/03/10 13:36:39;;;;;;;;;;;10.80;99.90;;;;;;5017647;28;19913;-76
2023/03/10 13:39:34;;;;;;;;;;;10.70;99.90;;;;;;5022750;28;19909;-77
2023/03/10 13:42:01;;;;;;;;;;;10.60;99.90;;;;;;5021821;28;19916;-77
2023/03/10 13:44:36;;;;;;;;;;;10.50;99.90;;;;;;5035435;28;20436;-77
2023/03/10 13:47:03;;;;;;;;;;;10.60;99.90;;;;;;5035728;28;20377;-77
2023/03/10 13:49:34;;;;;;;;;;;10.60;99.90;;;;;;5035557;28;20375;-77
2023/03/10 13:52:04;;;;;;;;;;;10.60;99.90;;;;;;5035354;28;19913;-77
2023/03/10 13:54:32;;;;;;;;;;;10.70;99.90;;;;;;5035329;28;20392;-77
2023/03/10 13:56:59;;;;;;;;;;;10.90;99.90;;;;;;5024325;28;19913;-77
2023/03/10 13:59:27;;;;;;;;;;;11.00;99.90;;;;;;5015504;28;19909;-78
2023/03/10 14:01:54;;;;;;;;;;;11.20;99.90;;;;;;5015602;28;19909;-77
2023/03/10 14:04:38;;;;;;;;;;;11.30;99.90;;;;;;5015156;28;19909;-76
2023/03/10 14:07:11;;;;;;;;;;;11.30;99.90;;;;;;5015731;28;20000;-77
2023/03/10 14:09:37;;;;;;;;;;;11.30;99.90;;;;;;5016201;28;20481;-77
2023/03/10 14:12:02;;;;;;;;;;;11.30;99.90;;;;;;5015274;28;19955;-76
2023/03/10 14:14:32;;;;;;;;;;;11.30;99.90;;;;;;5014770;28;19920;-75
2023/03/10 14:16:59;;;;;;;;;;;11.40;99.90;;;;;;5015039;28;20008;-76
2023/03/10 14:19:54;;;;;;;;;;;11.40;99.90;;;;;;4997222;28;20005;-76
2023/03/10 14:22:40;;;;;;;;;;;11.60;99.90;;;;;;5001761;28;19916;-76
2023/03/10 14:25:07;;;;;;;;;;;11.80;99.90;;;;;;5015209;28;19910;-76
2023/03/10 14:27:33;;;;;;;;;;;11.90;99.90;;;;;;5014477;28;19920;-76
2023/03/10 14:30:03;;;;;;;;;;;12.00;99.90;;;;;;5014387;28;20458;-77
2023/03/10 14:32:28;;;;;;;;;;;12.00;99.90;;;;;;5014942;28;19921;-77